WZZ8083 EYVI-ENZV
Flight info
| Callsign | WZZ8083 |
|---|---|
| Flight time | 1h 56m |
| Altitude | 36000 |
| Route | ELEKA DCT TIRIN DCT ESOSI DCT IDIPI |
| Aircraft | A320/M-SDE3FGHIRWY/LB1 |
Departure
| Time | 2026-04-27 19:18 |
|---|---|
| Airport | Vilnius International Airport (EYVI) |
Arrival
| Time | 2026-04-27 21:14 |
|---|---|
| Airport | Stavanger Airport, Sola (ENZV) |
| Time | Latitude | Longitude | Altitude | Speed | Heading |
|---|---|---|---|---|---|
| 2026-04-27 18:45 | 54.64486 | 25.28732 | 658 ft | 0 kts | 241° |
| 2026-04-27 19:12 | 54.64475 | 25.28700 | 654 ft | 8 kts | 241° |
| 2026-04-27 19:12 | 54.64425 | 25.28639 | 653 ft | 11 kts | 175° |
| 2026-04-27 19:12 | 54.64343 | 25.28660 | 650 ft | 13 kts | 172° |
| 2026-04-27 19:13 | 54.64240 | 25.28679 | 649 ft | 17 kts | 174° |
| 2026-04-27 19:13 | 54.64113 | 25.28699 | 647 ft | 20 kts | 175° |
| 2026-04-27 19:13 | 54.63960 | 25.28651 | 639 ft | 26 kts | 202° |
| 2026-04-27 19:13 | 54.63793 | 25.28534 | 628 ft | 26 kts | 202° |
| 2026-04-27 19:14 | 54.63613 | 25.28408 | 622 ft | 29 kts | 202° |
| 2026-04-27 19:14 | 54.63422 | 25.28275 | 614 ft | 31 kts | 201° |
| 2026-04-27 19:14 | 54.63232 | 25.28145 | 619 ft | 29 kts | 201° |
| 2026-04-27 19:14 | 54.63056 | 25.28023 | 606 ft | 27 kts | 202° |
| 2026-04-27 19:15 | 54.62875 | 25.27899 | 602 ft | 30 kts | 201° |
| 2026-04-27 19:15 | 54.62673 | 25.27757 | 601 ft | 32 kts | 202° |
| 2026-04-27 19:15 | 54.62543 | 25.27667 | 603 ft | 12 kts | 197° |
| 2026-04-27 19:15 | 54.62488 | 25.27692 | 610 ft | 0 kts | 144° |
| 2026-04-27 19:16 | 54.62485 | 25.27695 | 609 ft | 1 kts | 144° |
| 2026-04-27 19:16 | 54.62480 | 25.27702 | 608 ft | 3 kts | 142° |
| 2026-04-27 19:16 | 54.62420 | 25.27803 | 605 ft | 16 kts | 116° |
| 2026-04-27 19:16 | 54.62443 | 25.27899 | 603 ft | 0 kts | 21° |
| 2026-04-27 19:17 | 54.62554 | 25.27974 | 601 ft | 50 kts | 22° |
| 2026-04-27 19:17 | 54.63085 | 25.28344 | 603 ft | 110 kts | 22° |
| 2026-04-27 19:17 | 54.63939 | 25.28928 | 651 ft | 150 kts | 18° |
| 2026-04-27 19:17 | 54.64898 | 25.29587 | 1244 ft | 142 kts | 19° |
| 2026-04-27 19:18 | 54.65771 | 25.30212 | 2005 ft | 130 kts | 17° |
| 2026-04-27 19:18 | 54.66620 | 25.30818 | 2419 ft | 140 kts | 16° |
| 2026-04-27 19:18 | 54.67575 | 25.31479 | 2711 ft | 154 kts | 17° |
| 2026-04-27 19:18 | 54.68618 | 25.32194 | 3017 ft | 170 kts | 17° |
| 2026-04-27 19:19 | 54.69802 | 25.32998 | 3239 ft | 195 kts | 17° |
| 2026-04-27 19:19 | 54.71141 | 25.33912 | 3698 ft | 214 kts | 17° |
| 2026-04-27 19:19 | 54.72546 | 25.34889 | 4534 ft | 219 kts | 17° |
| 2026-04-27 19:19 | 54.73972 | 25.35888 | 5410 ft | 223 kts | 17° |
| 2026-04-27 19:20 | 54.75422 | 25.36905 | 6281 ft | 227 kts | 17° |
| 2026-04-27 19:20 | 54.76881 | 25.37926 | 7090 ft | 231 kts | 17° |
| 2026-04-27 19:20 | 54.78403 | 25.38816 | 7900 ft | 231 kts | 3° |
| 2026-04-27 19:20 | 54.79973 | 25.38519 | 8692 ft | 229 kts | 335° |
| 2026-04-27 19:21 | 54.81287 | 25.36875 | 9202 ft | 245 kts | 308° |
| 2026-04-27 19:21 | 54.82056 | 25.34159 | 9850 ft | 257 kts | 294° |
| 2026-04-27 19:21 | 54.82719 | 25.31241 | 10443 ft | 268 kts | 294° |
| 2026-04-27 19:21 | 54.83435 | 25.28098 | 10664 ft | 292 kts | 291° |
| 2026-04-27 19:22 | 54.83683 | 25.24503 | 10987 ft | 315 kts | 264° |
| 2026-04-27 19:22 | 54.82793 | 25.20957 | 11617 ft | 333 kts | 236° |
| 2026-04-27 19:22 | 54.80985 | 25.18343 | 12308 ft | 347 kts | 216° |
| 2026-04-27 19:22 | 54.78796 | 25.16477 | 13034 ft | 354 kts | 206° |
| 2026-04-27 19:23 | 54.76502 | 25.14847 | 13731 ft | 356 kts | 211° |
| 2026-04-27 19:23 | 54.74501 | 25.12425 | 14316 ft | 349 kts | 232° |
| 2026-04-27 19:23 | 54.73244 | 25.08958 | 14859 ft | 335 kts | 257° |
| 2026-04-27 19:23 | 54.72848 | 25.05071 | 15505 ft | 324 kts | 276° |
| 2026-04-27 19:24 | 54.73164 | 25.01269 | 16178 ft | 317 kts | 291° |
| 2026-04-27 19:24 | 54.73931 | 24.97716 | 16871 ft | 315 kts | 295° |
| 2026-04-27 19:24 | 54.74707 | 24.94160 | 17595 ft | 316 kts | 294° |
| 2026-04-27 19:24 | 54.75469 | 24.90594 | 18322 ft | 316 kts | 294° |
| 2026-04-27 19:25 | 54.76225 | 24.87015 | 18968 ft | 317 kts | 294° |
| 2026-04-27 19:25 | 54.76982 | 24.83424 | 19603 ft | 318 kts | 295° |
| 2026-04-27 19:25 | 54.77740 | 24.79819 | 20233 ft | 319 kts | 295° |
| 2026-04-27 19:25 | 54.78494 | 24.76245 | 20858 ft | 321 kts | 295° |
| 2026-04-27 19:26 | 54.79263 | 24.72616 | 21461 ft | 322 kts | 295° |
| 2026-04-27 19:26 | 54.80076 | 24.68997 | 22047 ft | 321 kts | 300° |
| 2026-04-27 19:26 | 54.81176 | 24.65642 | 22590 ft | 320 kts | 304° |
| 2026-04-27 19:26 | 54.82335 | 24.62323 | 23146 ft | 322 kts | 304° |
| 2026-04-27 19:27 | 54.83498 | 24.58987 | 23660 ft | 324 kts | 305° |
| 2026-04-27 19:27 | 54.84667 | 24.55628 | 24070 ft | 326 kts | 304° |
| 2026-04-27 19:27 | 54.85839 | 24.52248 | 24469 ft | 328 kts | 304° |
| 2026-04-27 19:27 | 54.87018 | 24.48840 | 24890 ft | 330 kts | 304° |
| 2026-04-27 19:28 | 54.88202 | 24.45408 | 25289 ft | 332 kts | 304° |
| 2026-04-27 19:28 | 54.89390 | 24.41956 | 25689 ft | 334 kts | 304° |
| 2026-04-27 19:28 | 54.90587 | 24.38478 | 26151 ft | 336 kts | 304° |
| 2026-04-27 19:28 | 54.91786 | 24.34988 | 26593 ft | 336 kts | 304° |
| 2026-04-27 19:29 | 54.92987 | 24.31487 | 26997 ft | 338 kts | 304° |
| 2026-04-27 19:29 | 54.94193 | 24.27965 | 27373 ft | 340 kts | 304° |
| 2026-04-27 19:29 | 54.95406 | 24.24415 | 27737 ft | 342 kts | 304° |
| 2026-04-27 19:29 | 54.96608 | 24.20889 | 28094 ft | 344 kts | 304° |
| 2026-04-27 19:30 | 54.97834 | 24.17294 | 28449 ft | 346 kts | 304° |
| 2026-04-27 19:30 | 54.99071 | 24.13671 | 28754 ft | 348 kts | 304° |
| 2026-04-27 19:30 | 55.00312 | 24.10028 | 29119 ft | 350 kts | 304° |
| 2026-04-27 19:30 | 55.01556 | 24.06371 | 29456 ft | 352 kts | 304° |
| 2026-04-27 19:31 | 55.02807 | 24.02687 | 29852 ft | 353 kts | 303° |
| 2026-04-27 19:31 | 55.04051 | 23.99012 | 30326 ft | 351 kts | 303° |
| 2026-04-27 19:31 | 55.05292 | 23.95345 | 30699 ft | 352 kts | 303° |
| 2026-04-27 19:31 | 55.06536 | 23.91662 | 31016 ft | 353 kts | 303° |
| 2026-04-27 19:32 | 55.07790 | 23.87949 | 31323 ft | 355 kts | 303° |
| 2026-04-27 19:32 | 55.09048 | 23.84222 | 31624 ft | 357 kts | 303° |
| 2026-04-27 19:32 | 55.10311 | 23.80466 | 31931 ft | 359 kts | 303° |
| 2026-04-27 19:32 | 55.11578 | 23.76691 | 32243 ft | 361 kts | 303° |
| 2026-04-27 19:33 | 55.12853 | 23.72890 | 32552 ft | 363 kts | 303° |
| 2026-04-27 19:33 | 55.13699 | 23.70365 | 32753 ft | 365 kts | 303° |
| 2026-04-27 19:33 | 55.15412 | 23.65235 | 33217 ft | 365 kts | 303° |
| 2026-04-27 19:33 | 55.16693 | 23.61390 | 33568 ft | 366 kts | 303° |
| 2026-04-27 19:34 | 55.17976 | 23.57533 | 33919 ft | 367 kts | 303° |
| 2026-04-27 19:34 | 55.19262 | 23.53661 | 34226 ft | 369 kts | 303° |
| 2026-04-27 19:34 | 55.20555 | 23.49766 | 34476 ft | 371 kts | 303° |
| 2026-04-27 19:34 | 55.21838 | 23.45901 | 34699 ft | 373 kts | 303° |
| 2026-04-27 19:35 | 55.23142 | 23.41963 | 34932 ft | 374 kts | 303° |
| 2026-04-27 19:35 | 55.24450 | 23.38009 | 35160 ft | 376 kts | 303° |
| 2026-04-27 19:35 | 55.25764 | 23.34031 | 35368 ft | 378 kts | 303° |
| 2026-04-27 19:35 | 55.27083 | 23.30028 | 35602 ft | 380 kts | 303° |
| 2026-04-27 19:36 | 55.28406 | 23.26008 | 35832 ft | 382 kts | 302° |
| 2026-04-27 19:36 | 55.29737 | 23.21955 | 36007 ft | 383 kts | 302° |
| 2026-04-27 19:36 | 55.31065 | 23.17894 | 36156 ft | 384 kts | 302° |
| 2026-04-27 19:37 | 55.33758 | 23.09639 | 36185 ft | 393 kts | 302° |
| 2026-04-27 19:37 | 55.36478 | 23.01290 | 36185 ft | 394 kts | 302° |
| 2026-04-27 19:38 | 55.39192 | 22.92913 | 36196 ft | 394 kts | 302° |
| 2026-04-27 19:38 | 55.41900 | 22.84525 | 36195 ft | 394 kts | 302° |
| 2026-04-27 19:39 | 55.44595 | 22.76177 | 36191 ft | 394 kts | 302° |
| 2026-04-27 19:39 | 55.47300 | 22.67768 | 36202 ft | 394 kts | 302° |
| 2026-04-27 19:40 | 55.49997 | 22.59340 | 36208 ft | 394 kts | 302° |
| 2026-04-27 19:40 | 55.52684 | 22.50900 | 36213 ft | 394 kts | 302° |
| 2026-04-27 19:41 | 55.55365 | 22.42463 | 36217 ft | 394 kts | 302° |
| 2026-04-27 19:41 | 55.58047 | 22.34003 | 36225 ft | 394 kts | 302° |
| 2026-04-27 19:42 | 55.60720 | 22.25541 | 36224 ft | 394 kts | 302° |
| 2026-04-27 19:42 | 55.63386 | 22.17054 | 36267 ft | 395 kts | 302° |
| 2026-04-27 19:43 | 55.66045 | 22.08553 | 36233 ft | 398 kts | 302° |
| 2026-04-27 19:43 | 55.68726 | 21.99967 | 36232 ft | 399 kts | 302° |
| 2026-04-27 19:44 | 55.71412 | 21.91355 | 36231 ft | 399 kts | 302° |
| 2026-04-27 19:44 | 55.74093 | 21.82708 | 36209 ft | 400 kts | 302° |
| 2026-04-27 19:45 | 55.76766 | 21.74060 | 36241 ft | 399 kts | 302° |
| 2026-04-27 19:45 | 55.79424 | 21.65418 | 36249 ft | 398 kts | 301° |
| 2026-04-27 19:46 | 55.82078 | 21.56775 | 36260 ft | 398 kts | 301° |
| 2026-04-27 19:46 | 55.84724 | 21.48129 | 36262 ft | 397 kts | 301° |
| 2026-04-27 19:47 | 55.87334 | 21.39539 | 36265 ft | 397 kts | 301° |
| 2026-04-27 19:47 | 55.89957 | 21.30883 | 36242 ft | 397 kts | 301° |
| 2026-04-27 19:48 | 55.92577 | 21.22211 | 36259 ft | 396 kts | 301° |
| 2026-04-27 19:48 | 55.95180 | 21.13565 | 36263 ft | 395 kts | 301° |
| 2026-04-27 19:49 | 55.97774 | 21.04915 | 36264 ft | 395 kts | 301° |
| 2026-04-27 19:49 | 56.00347 | 20.96320 | 36264 ft | 395 kts | 301° |
| 2026-04-27 19:50 | 56.02926 | 20.87649 | 36267 ft | 395 kts | 301° |
| 2026-04-27 19:50 | 56.05492 | 20.78981 | 36243 ft | 394 kts | 300° |
| 2026-04-27 19:51 | 56.08069 | 20.70297 | 36258 ft | 394 kts | 301° |
| 2026-04-27 19:51 | 56.10671 | 20.61657 | 36284 ft | 394 kts | 301° |
| 2026-04-27 19:52 | 56.13269 | 20.52991 | 36287 ft | 394 kts | 301° |
| 2026-04-27 19:52 | 56.15852 | 20.44318 | 36292 ft | 394 kts | 301° |
| 2026-04-27 19:53 | 56.19714 | 20.31273 | 36266 ft | 395 kts | 301° |
| 2026-04-27 19:53 | 56.22285 | 20.22557 | 36280 ft | 395 kts | 301° |
| 2026-04-27 19:54 | 56.24837 | 20.13885 | 36287 ft | 395 kts | 301° |
| 2026-04-27 19:54 | 56.27402 | 20.05128 | 36302 ft | 395 kts | 300° |
| 2026-04-27 19:55 | 56.29956 | 19.96361 | 36307 ft | 395 kts | 300° |
| 2026-04-27 19:55 | 56.32504 | 19.87581 | 36284 ft | 396 kts | 300° |
| 2026-04-27 19:56 | 56.34625 | 19.80271 | 36282 ft | 396 kts | 300° |
| 2026-04-27 19:56 | 56.37173 | 19.71444 | 36285 ft | 397 kts | 300° |
| 2026-04-27 19:57 | 56.39715 | 19.62588 | 36296 ft | 397 kts | 300° |
| 2026-04-27 19:57 | 56.42260 | 19.53728 | 36297 ft | 398 kts | 300° |
| 2026-04-27 19:58 | 56.44800 | 19.44846 | 36310 ft | 398 kts | 300° |
| 2026-04-27 19:58 | 56.47313 | 19.35991 | 36295 ft | 398 kts | 300° |
| 2026-04-27 19:59 | 56.49841 | 19.27066 | 36307 ft | 398 kts | 300° |
| 2026-04-27 19:59 | 56.52358 | 19.18122 | 36314 ft | 398 kts | 300° |
| 2026-04-27 20:00 | 56.54871 | 19.09176 | 36317 ft | 399 kts | 300° |
| 2026-04-27 20:00 | 56.57386 | 19.00213 | 36322 ft | 399 kts | 300° |
| 2026-04-27 20:01 | 56.59891 | 18.91236 | 36321 ft | 399 kts | 300° |
| 2026-04-27 20:01 | 56.62385 | 18.82231 | 36299 ft | 399 kts | 300° |
| 2026-04-27 20:02 | 56.64878 | 18.73228 | 36306 ft | 399 kts | 300° |
| 2026-04-27 20:02 | 56.67349 | 18.64255 | 36315 ft | 399 kts | 299° |
| 2026-04-27 20:03 | 56.69831 | 18.55200 | 36319 ft | 400 kts | 299° |
| 2026-04-27 20:03 | 56.72309 | 18.46143 | 36330 ft | 400 kts | 299° |
| 2026-04-27 20:04 | 56.74781 | 18.37064 | 36299 ft | 400 kts | 299° |
| 2026-04-27 20:04 | 56.77238 | 18.27963 | 36302 ft | 400 kts | 299° |
| 2026-04-27 20:05 | 56.79699 | 18.18842 | 36313 ft | 401 kts | 299° |
| 2026-04-27 20:05 | 56.82158 | 18.09711 | 36322 ft | 401 kts | 299° |
| 2026-04-27 20:06 | 56.84610 | 18.00561 | 36323 ft | 401 kts | 299° |
| 2026-04-27 20:06 | 56.87054 | 17.91387 | 36332 ft | 401 kts | 299° |
| 2026-04-27 20:07 | 56.89495 | 17.82200 | 36312 ft | 402 kts | 299° |
| 2026-04-27 20:07 | 56.91936 | 17.73000 | 36313 ft | 402 kts | 299° |
| 2026-04-27 20:08 | 56.94369 | 17.63776 | 36324 ft | 403 kts | 298° |
| 2026-04-27 20:08 | 56.96795 | 17.54524 | 36359 ft | 403 kts | 298° |
| 2026-04-27 20:09 | 56.99204 | 17.45321 | 36357 ft | 403 kts | 298° |
| 2026-04-27 20:09 | 57.01618 | 17.36037 | 36350 ft | 403 kts | 298° |
| 2026-04-27 20:10 | 57.04032 | 17.26750 | 36349 ft | 403 kts | 298° |
| 2026-04-27 20:10 | 57.06433 | 17.17445 | 36356 ft | 403 kts | 298° |
| 2026-04-27 20:11 | 57.08825 | 17.08125 | 36350 ft | 403 kts | 298° |
| 2026-04-27 20:11 | 57.11218 | 16.98798 | 36351 ft | 403 kts | 298° |
| 2026-04-27 20:12 | 57.13600 | 16.89454 | 36351 ft | 403 kts | 298° |
| 2026-04-27 20:12 | 57.15971 | 16.80087 | 36325 ft | 403 kts | 298° |
| 2026-04-27 20:13 | 57.18324 | 16.70780 | 36337 ft | 404 kts | 298° |
| 2026-04-27 20:13 | 57.20695 | 16.61370 | 36339 ft | 404 kts | 298° |
| 2026-04-27 20:14 | 57.23056 | 16.51956 | 36344 ft | 404 kts | 298° |
| 2026-04-27 20:14 | 57.25414 | 16.42515 | 36347 ft | 405 kts | 298° |
| 2026-04-27 20:15 | 57.27766 | 16.33064 | 36352 ft | 405 kts | 298° |
| 2026-04-27 20:15 | 57.30104 | 16.23601 | 36314 ft | 405 kts | 297° |
| 2026-04-27 20:16 | 57.32441 | 16.14104 | 36325 ft | 406 kts | 297° |
| 2026-04-27 20:16 | 57.34764 | 16.04638 | 36326 ft | 407 kts | 297° |
| 2026-04-27 20:17 | 57.37106 | 15.95083 | 36336 ft | 407 kts | 297° |
| 2026-04-27 20:17 | 57.39433 | 15.85513 | 36341 ft | 408 kts | 297° |
| 2026-04-27 20:18 | 57.41758 | 15.75910 | 36347 ft | 408 kts | 297° |
| 2026-04-27 20:18 | 57.44074 | 15.66299 | 36340 ft | 408 kts | 297° |
| 2026-04-27 20:19 | 57.46383 | 15.56673 | 36345 ft | 408 kts | 297° |
| 2026-04-27 20:19 | 57.48688 | 15.47026 | 36352 ft | 408 kts | 297° |
| 2026-04-27 20:20 | 57.50987 | 15.37365 | 36357 ft | 409 kts | 297° |
| 2026-04-27 20:20 | 57.53281 | 15.27670 | 36362 ft | 409 kts | 297° |
| 2026-04-27 20:21 | 57.55561 | 15.18043 | 36333 ft | 409 kts | 297° |
| 2026-04-27 20:21 | 57.57844 | 15.08332 | 36373 ft | 409 kts | 297° |
| 2026-04-27 20:22 | 57.60111 | 14.98614 | 36372 ft | 409 kts | 297° |
| 2026-04-27 20:22 | 57.62367 | 14.88874 | 36372 ft | 409 kts | 297° |
| 2026-04-27 20:23 | 57.64621 | 14.79133 | 36375 ft | 409 kts | 297° |
| 2026-04-27 20:23 | 57.66870 | 14.69388 | 36373 ft | 408 kts | 296° |
| 2026-04-27 20:24 | 57.69116 | 14.59627 | 36331 ft | 409 kts | 296° |
| 2026-04-27 20:24 | 57.71364 | 14.49831 | 36327 ft | 410 kts | 296° |
| 2026-04-27 20:25 | 57.73596 | 14.39994 | 36324 ft | 411 kts | 296° |
| 2026-04-27 20:25 | 57.75806 | 14.30185 | 36322 ft | 411 kts | 296° |
| 2026-04-27 20:26 | 57.78029 | 14.20304 | 36325 ft | 412 kts | 296° |
| 2026-04-27 20:26 | 57.80252 | 14.10406 | 36331 ft | 412 kts | 296° |
| 2026-04-27 20:27 | 57.82467 | 14.00495 | 36345 ft | 413 kts | 296° |
| 2026-04-27 20:27 | 57.84673 | 13.90535 | 36356 ft | 414 kts | 295° |
| 2026-04-27 20:28 | 57.86876 | 13.80547 | 36360 ft | 414 kts | 295° |
| 2026-04-27 20:28 | 57.88705 | 13.72229 | 36367 ft | 414 kts | 295° |
| 2026-04-27 20:29 | 57.91261 | 13.60564 | 36370 ft | 415 kts | 295° |
| 2026-04-27 20:29 | 57.93453 | 13.50521 | 36342 ft | 415 kts | 295° |
| 2026-04-27 20:30 | 57.95620 | 13.40508 | 36347 ft | 416 kts | 295° |
| 2026-04-27 20:30 | 57.97798 | 13.30410 | 36359 ft | 416 kts | 295° |
| 2026-04-27 20:31 | 57.99974 | 13.20297 | 36365 ft | 416 kts | 295° |
| 2026-04-27 20:31 | 58.02134 | 13.10167 | 36381 ft | 417 kts | 295° |
| 2026-04-27 20:32 | 58.04295 | 13.00020 | 36382 ft | 417 kts | 295° |
| 2026-04-27 20:32 | 58.06450 | 12.89844 | 36351 ft | 417 kts | 295° |
| 2026-04-27 20:33 | 58.08590 | 12.79655 | 36365 ft | 418 kts | 295° |
| 2026-04-27 20:33 | 58.10730 | 12.69437 | 36370 ft | 418 kts | 294° |
| 2026-04-27 20:34 | 58.12842 | 12.59266 | 36363 ft | 418 kts | 294° |
| 2026-04-27 20:34 | 58.14964 | 12.49017 | 36367 ft | 418 kts | 294° |
| 2026-04-27 20:35 | 58.17088 | 12.38746 | 36347 ft | 419 kts | 294° |
| 2026-04-27 20:35 | 58.19206 | 12.28447 | 36338 ft | 419 kts | 294° |
| 2026-04-27 20:36 | 58.21314 | 12.18130 | 36369 ft | 420 kts | 294° |
| 2026-04-27 20:36 | 58.23399 | 12.07854 | 36374 ft | 420 kts | 294° |
| 2026-04-27 20:37 | 58.25495 | 11.97495 | 36377 ft | 420 kts | 294° |
| 2026-04-27 20:37 | 58.27580 | 11.87111 | 36388 ft | 421 kts | 294° |
| 2026-04-27 20:38 | 58.29662 | 11.76719 | 36393 ft | 421 kts | 294° |
| 2026-04-27 20:38 | 58.31729 | 11.66310 | 36400 ft | 421 kts | 294° |
| 2026-04-27 20:39 | 58.33792 | 11.55887 | 36402 ft | 421 kts | 294° |
| 2026-04-27 20:39 | 58.35850 | 11.45442 | 36403 ft | 421 kts | 294° |
| 2026-04-27 20:40 | 58.37903 | 11.34994 | 36402 ft | 421 kts | 294° |
| 2026-04-27 20:40 | 58.39937 | 11.24530 | 36383 ft | 421 kts | 293° |
| 2026-04-27 20:41 | 58.41958 | 11.14051 | 36386 ft | 421 kts | 293° |
| 2026-04-27 20:41 | 58.43977 | 11.03550 | 36389 ft | 422 kts | 293° |
| 2026-04-27 20:42 | 58.45983 | 10.93080 | 36392 ft | 422 kts | 293° |
| 2026-04-27 20:42 | 58.48007 | 10.82470 | 36396 ft | 423 kts | 293° |
| 2026-04-27 20:43 | 58.50016 | 10.71905 | 36405 ft | 423 kts | 293° |
| 2026-04-27 20:43 | 58.52006 | 10.61393 | 36381 ft | 423 kts | 293° |
| 2026-04-27 20:44 | 58.53994 | 10.50783 | 36389 ft | 424 kts | 292° |
| 2026-04-27 20:44 | 58.55974 | 10.40122 | 36390 ft | 425 kts | 292° |
| 2026-04-27 20:45 | 58.57944 | 10.29433 | 36398 ft | 425 kts | 292° |
| 2026-04-27 20:45 | 58.59451 | 10.18418 | 36397 ft | 428 kts | 287° |
| 2026-04-27 20:46 | 58.60844 | 10.07323 | 36409 ft | 428 kts | 287° |
| 2026-04-27 20:46 | 58.61995 | 9.98071 | 36390 ft | 429 kts | 287° |
| 2026-04-27 20:47 | 58.63368 | 9.86918 | 36396 ft | 430 kts | 287° |
| 2026-04-27 20:47 | 58.64738 | 9.75743 | 36401 ft | 430 kts | 287° |
| 2026-04-27 20:48 | 58.66097 | 9.64544 | 36403 ft | 431 kts | 286° |
| 2026-04-27 20:48 | 58.67445 | 9.53318 | 36414 ft | 431 kts | 286° |
| 2026-04-27 20:49 | 58.68787 | 9.42088 | 36400 ft | 431 kts | 287° |
| 2026-04-27 20:49 | 58.70117 | 9.30905 | 36414 ft | 431 kts | 287° |
| 2026-04-27 20:50 | 58.71438 | 9.19651 | 36424 ft | 431 kts | 287° |
| 2026-04-27 20:50 | 58.72749 | 9.08389 | 36429 ft | 431 kts | 286° |
| 2026-04-27 20:51 | 58.74048 | 8.97122 | 36428 ft | 431 kts | 286° |
| 2026-04-27 20:51 | 58.75339 | 8.85844 | 36432 ft | 431 kts | 286° |
| 2026-04-27 20:52 | 58.75979 | 8.80207 | 36289 ft | 432 kts | 286° |
| 2026-04-27 20:52 | 58.76616 | 8.74546 | 35859 ft | 433 kts | 286° |
| 2026-04-27 20:52 | 58.77256 | 8.68860 | 35083 ft | 435 kts | 286° |
| 2026-04-27 20:52 | 58.77900 | 8.63146 | 34278 ft | 438 kts | 287° |
| 2026-04-27 20:53 | 58.78550 | 8.57384 | 33315 ft | 441 kts | 286° |
| 2026-04-27 20:53 | 58.79200 | 8.51602 | 32457 ft | 441 kts | 286° |
| 2026-04-27 20:53 | 58.79841 | 8.45833 | 31843 ft | 437 kts | 286° |
| 2026-04-27 20:53 | 58.80468 | 8.40145 | 31317 ft | 431 kts | 286° |
| 2026-04-27 20:54 | 58.81688 | 8.28987 | 30174 ft | 424 kts | 285° |
| 2026-04-27 20:54 | 58.82289 | 8.23459 | 29586 ft | 418 kts | 285° |
| 2026-04-27 20:54 | 58.82880 | 8.18000 | 29070 ft | 412 kts | 286° |
| 2026-04-27 20:55 | 58.83463 | 8.12602 | 28531 ft | 408 kts | 285° |
| 2026-04-27 20:55 | 58.84038 | 8.07268 | 28001 ft | 404 kts | 285° |
| 2026-04-27 20:55 | 58.84604 | 8.01973 | 27464 ft | 400 kts | 285° |
| 2026-04-27 20:55 | 58.85165 | 7.96731 | 26960 ft | 397 kts | 285° |
| 2026-04-27 20:56 | 58.85717 | 7.91529 | 26435 ft | 394 kts | 285° |
| 2026-04-27 20:56 | 58.86264 | 7.86354 | 25936 ft | 392 kts | 285° |
| 2026-04-27 20:56 | 58.86808 | 7.81200 | 25439 ft | 390 kts | 285° |
| 2026-04-27 20:56 | 58.87348 | 7.76070 | 24958 ft | 388 kts | 285° |
| 2026-04-27 20:57 | 58.87881 | 7.70965 | 24483 ft | 387 kts | 285° |
| 2026-04-27 20:57 | 58.88412 | 7.65879 | 24025 ft | 386 kts | 285° |
| 2026-04-27 20:57 | 58.88941 | 7.60798 | 23509 ft | 383 kts | 285° |
| 2026-04-27 20:57 | 58.89462 | 7.55762 | 23079 ft | 380 kts | 285° |
| 2026-04-27 20:58 | 58.89967 | 7.50838 | 22634 ft | 377 kts | 285° |
| 2026-04-27 20:58 | 58.90473 | 7.45884 | 22185 ft | 374 kts | 285° |
| 2026-04-27 20:58 | 58.90974 | 7.40965 | 21729 ft | 371 kts | 285° |
| 2026-04-27 20:58 | 58.91467 | 7.36090 | 21288 ft | 367 kts | 285° |
| 2026-04-27 20:59 | 58.91957 | 7.31254 | 20819 ft | 365 kts | 285° |
| 2026-04-27 20:59 | 58.92441 | 7.26448 | 20360 ft | 362 kts | 284° |
| 2026-04-27 20:59 | 58.92920 | 7.21685 | 19877 ft | 360 kts | 284° |
| 2026-04-27 20:59 | 58.93396 | 7.16940 | 19399 ft | 358 kts | 284° |
| 2026-04-27 21:00 | 58.93867 | 7.12214 | 18909 ft | 356 kts | 284° |
| 2026-04-27 21:00 | 58.94334 | 7.07507 | 18384 ft | 355 kts | 284° |
| 2026-04-27 21:00 | 58.94789 | 7.02888 | 17897 ft | 352 kts | 284° |
| 2026-04-27 21:00 | 58.95242 | 6.98265 | 17390 ft | 349 kts | 284° |
| 2026-04-27 21:01 | 58.95543 | 6.93609 | 16919 ft | 349 kts | 274° |
| 2026-04-27 21:01 | 58.95355 | 6.88910 | 16400 ft | 351 kts | 261° |
| 2026-04-27 21:01 | 58.94658 | 6.84374 | 15912 ft | 353 kts | 249° |
| 2026-04-27 21:01 | 58.93670 | 6.80045 | 15412 ft | 351 kts | 248° |
| 2026-04-27 21:02 | 58.92684 | 6.75722 | 14906 ft | 350 kts | 248° |
| 2026-04-27 21:02 | 58.91704 | 6.71415 | 14402 ft | 349 kts | 248° |
| 2026-04-27 21:02 | 58.90726 | 6.67114 | 13858 ft | 348 kts | 248° |
| 2026-04-27 21:02 | 58.89751 | 6.62841 | 13350 ft | 346 kts | 248° |
| 2026-04-27 21:03 | 58.88783 | 6.58603 | 12849 ft | 343 kts | 247° |
| 2026-04-27 21:03 | 58.87819 | 6.54392 | 12347 ft | 341 kts | 247° |
| 2026-04-27 21:03 | 58.86858 | 6.50208 | 11691 ft | 341 kts | 247° |
| 2026-04-27 21:03 | 58.85915 | 6.46107 | 11308 ft | 323 kts | 247° |
| 2026-04-27 21:04 | 58.85026 | 6.42263 | 11004 ft | 307 kts | 247° |
| 2026-04-27 21:04 | 58.84164 | 6.38547 | 10468 ft | 300 kts | 247° |
| 2026-04-27 21:04 | 58.83317 | 6.34902 | 10226 ft | 295 kts | 247° |
| 2026-04-27 21:04 | 58.82470 | 6.31260 | 9775 ft | 299 kts | 247° |
| 2026-04-27 21:05 | 58.81625 | 6.27626 | 9452 ft | 295 kts | 247° |
| 2026-04-27 21:05 | 58.80783 | 6.24008 | 8886 ft | 293 kts | 247° |
| 2026-04-27 21:05 | 58.79953 | 6.20450 | 8292 ft | 289 kts | 246° |
| 2026-04-27 21:05 | 58.79127 | 6.16911 | 7853 ft | 290 kts | 246° |
| 2026-04-27 21:06 | 58.78322 | 6.13474 | 7712 ft | 280 kts | 246° |
| 2026-04-27 21:06 | 58.77530 | 6.10095 | 7527 ft | 273 kts | 246° |
| 2026-04-27 21:06 | 58.76754 | 6.06790 | 7144 ft | 269 kts | 247° |
| 2026-04-27 21:06 | 58.76034 | 6.03440 | 6602 ft | 274 kts | 249° |
| 2026-04-27 21:07 | 58.75363 | 6.00024 | 6361 ft | 269 kts | 250° |
| 2026-04-27 21:07 | 58.74724 | 5.96665 | 6139 ft | 265 kts | 250° |
| 2026-04-27 21:07 | 58.74092 | 5.93348 | 5849 ft | 263 kts | 250° |
| 2026-04-27 21:07 | 58.73463 | 5.90107 | 5654 ft | 251 kts | 250° |
| 2026-04-27 21:08 | 58.72858 | 5.87017 | 5258 ft | 244 kts | 249° |
| 2026-04-27 21:08 | 58.72260 | 5.83981 | 4763 ft | 241 kts | 249° |
| 2026-04-27 21:08 | 58.71667 | 5.80980 | 4238 ft | 239 kts | 249° |
| 2026-04-27 21:08 | 58.71216 | 5.77921 | 3761 ft | 238 kts | 264° |
| 2026-04-27 21:09 | 58.71295 | 5.74759 | 3364 ft | 238 kts | 283° |
| 2026-04-27 21:09 | 58.71807 | 5.71770 | 3014 ft | 229 kts | 291° |
| 2026-04-27 21:09 | 58.72332 | 5.68989 | 2873 ft | 212 kts | 296° |
| 2026-04-27 21:09 | 58.73104 | 5.66735 | 2790 ft | 191 kts | 316° |
| 2026-04-27 21:10 | 58.74066 | 5.65243 | 2616 ft | 168 kts | 333° |
| 2026-04-27 21:10 | 58.75086 | 5.64415 | 2451 ft | 152 kts | 347° |
| 2026-04-27 21:10 | 58.76148 | 5.64129 | 2266 ft | 152 kts | 1° |
| 2026-04-27 21:10 | 58.77147 | 5.64086 | 2038 ft | 138 kts | 359° |
| 2026-04-27 21:11 | 58.78087 | 5.64043 | 1821 ft | 133 kts | 1° |
| 2026-04-27 21:11 | 58.79005 | 5.64055 | 1644 ft | 131 kts | 1° |
| 2026-04-27 21:11 | 58.79916 | 5.64041 | 1485 ft | 130 kts | 360° |
| 2026-04-27 21:11 | 58.80820 | 5.63977 | 1347 ft | 130 kts | 359° |
| 2026-04-27 21:12 | 58.81707 | 5.63937 | 1160 ft | 128 kts | 0° |
| 2026-04-27 21:12 | 58.82601 | 5.63942 | 949 ft | 129 kts | 0° |
| 2026-04-27 21:12 | 58.83496 | 5.63905 | 790 ft | 128 kts | 358° |
| 2026-04-27 21:12 | 58.84399 | 5.63871 | 638 ft | 131 kts | 359° |
| 2026-04-27 21:13 | 58.85312 | 5.63850 | 402 ft | 132 kts | 360° |
| 2026-04-27 21:13 | 58.86233 | 5.63818 | 256 ft | 133 kts | 359° |
| 2026-04-27 21:13 | 58.87164 | 5.63790 | 66 ft | 134 kts | 359° |
| 2026-04-27 21:13 | 58.87998 | 5.63766 | 32 ft | 99 kts | 360° |
| 2026-04-27 21:14 | 58.88512 | 5.63758 | 30 ft | 49 kts | 359° |
| 2026-04-27 21:14 | 58.88689 | 5.63737 | 28 ft | 12 kts | 326° |
| 2026-04-27 21:14 | 58.88709 | 5.63569 | 30 ft | 14 kts | 270° |
| 2026-04-27 21:14 | 58.88689 | 5.63432 | 31 ft | 12 kts | 209° |
| 2026-04-27 21:15 | 58.88610 | 5.63419 | 31 ft | 10 kts | 180° |
| 2026-04-27 21:15 | 58.88527 | 5.63420 | 31 ft | 14 kts | 177° |
| 2026-04-27 21:15 | 58.88420 | 5.63428 | 30 ft | 13 kts | 178° |
| 2026-04-27 21:15 | 58.88342 | 5.63428 | 31 ft | 11 kts | 180° |
| 2026-04-27 21:16 | 58.88278 | 5.63363 | 32 ft | 11 kts | 242° |
| 2026-04-27 21:16 | 58.88202 | 5.63300 | 30 ft | 15 kts | 179° |
| 2026-04-27 21:16 | 58.88105 | 5.63246 | 28 ft | 13 kts | 216° |
| 2026-04-27 21:16 | 58.88117 | 5.63156 | 26 ft | 9 kts | 312° |
| 2026-04-27 21:17 | 58.88159 | 5.63068 | 26 ft | 4 kts | 316° |
| 2026-04-27 21:17 | 58.88160 | 5.63068 | 26 ft | 0 kts | 316° |